Time;durP1;ratioP1;P1;durP2;ratioP2;P2;SDS_P1;SDS_P2;PMS_P1;PMS_P2;Temp;Humidity;BMP_temperature;BMP_pressure;BME280_temperature;BME280_humidity;BME280_pressure;Samples;Min_cycle;Max_cycle;Signal;HPM_P1;HPM_P2
2023/10/17 00:01:10;;;;;;;9.98;6.78;;;2.10;44.20;;;;;;5036280;28;20638;-66
2023/10/17 00:03:37;;;;;;;8.60;6.43;;;2.10;44.50;;;;;;5034764;28;20207;-66
2023/10/17 00:06:06;;;;;;;16.08;6.80;;;2.10;44.40;;;;;;5034741;28;20709;-65
2023/10/17 00:08:32;;;;;;;8.80;6.00;;;2.00;45.70;;;;;;5033255;28;20194;-66
2023/10/17 00:11:07;;;;;;;7.70;5.03;;;2.00;45.70;;;;;;5034573;28;20546;-66
2023/10/17 00:13:44;;;;;;;9.38;6.97;;;2.00;46.60;;;;;;5034770;28;20277;-66
2023/10/17 00:16:13;;;;;;;10.23;6.57;;;2.00;45.90;;;;;;5033112;28;20183;-66
2023/10/17 00:18:39;;;;;;;10.80;6.63;;;2.00;45.80;;;;;;5034466;28;20379;-66
2023/10/17 00:21:20;;;;;;;8.60;6.40;;;2.00;45.70;;;;;;5034531;28;20664;-66
2023/10/17 00:23:47;;;;;;;9.25;6.80;;;1.90;45.60;;;;;;5034454;28;20830;-65
2023/10/17 00:26:14;;;;;;;10.20;6.57;;;1.90;45.60;;;;;;5034581;28;20534;-65
2023/10/17 00:28:40;;;;;;;10.90;7.95;;;1.80;46.70;;;;;;5034345;28;20179;-66
2023/10/17 00:31:06;;;;;;;11.23;5.90;;;1.90;46.80;;;;;;5033012;28;20179;-66
2023/10/17 00:33:32;;;;;;;7.93;6.20;;;1.90;46.20;;;;;;5034245;28;20686;-66
2023/10/17 00:36:03;;;;;;;7.88;6.13;;;1.90;46.60;;;;;;5034145;28;20179;-66
2023/10/17 00:38:35;;;;;;;9.70;6.07;;;1.80;46.40;;;;;;5034016;28;20210;-66
2023/10/17 00:41:05;;;;;;;7.90;5.90;;;1.80;45.90;;;;;;5034287;28;20174;-65
2023/10/17 00:43:31;;;;;;;11.07;5.47;;;1.80;46.20;;;;;;5034132;28;20195;-66
2023/10/17 00:45:57;;;;;;;10.05;6.50;;;1.80;45.50;;;;;;5034675;28;20597;-65
2023/10/17 00:48:25;;;;;;;10.67;5.60;;;1.80;45.50;;;;;;5034037;28;20214;-65
2023/10/17 00:50:57;;;;;;;8.65;5.65;;;1.80;45.50;;;;;;5032519;28;20270;-65
2023/10/17 00:53:24;;;;;;;10.23;6.72;;;1.80;45.50;;;;;;5033912;28;20207;-65
2023/10/17 00:55:56;;;;;;;10.25;6.65;;;1.70;45.40;;;;;;5033857;28;20179;-65
2023/10/17 00:58:23;;;;;;;8.13;6.50;;;1.70;46.90;;;;;;5033698;28;20272;-66
2023/10/17 01:00:53;;;;;;;10.10;7.18;;;1.70;47.90;;;;;;5033723;28;20171;-65
2023/10/17 01:03:20;;;;;;;13.02;6.32;;;1.60;47.10;;;;;;5033598;28;20207;-66
2023/10/17 01:08:48;;;;;;;9.48;6.97;;;1.50;45.30;;;;;;5010264;28;20241;-66
2023/10/17 01:11:21;;;;;;;9.15;5.88;;;1.50;46.10;;;;;;5033478;28;20262;-66
2023/10/17 01:13:53;;;;;;;9.35;6.45;;;1.50;47.60;;;;;;5033654;28;20283;-66
2023/10/17 01:16:24;;;;;;;9.05;6.15;;;1.40;48.20;;;;;;5033216;28;20195;-66
2023/10/17 01:18:50;;;;;;;8.40;6.00;;;1.50;47.10;;;;;;5033367;28;20191;-66
2023/10/17 01:21:20;;;;;;;12.57;8.23;;;1.50;47.00;;;;;;5033250;28;20229;-66
2023/10/17 01:23:46;;;;;;;9.90;6.78;;;1.50;46.70;;;;;;5033140;28;20192;-66
2023/10/17 01:26:23;;;;;;;8.23;6.18;;;1.50;47.40;;;;;;5033038;28;20200;-66
2023/10/17 01:28:50;;;;;;;11.40;6.88;;;1.50;46.20;;;;;;5033210;28;20179;-66
2023/10/17 01:31:22;;;;;;;9.40;6.53;;;1.40;46.20;;;;;;5033069;28;20649;-66
2023/10/17 01:33:49;;;;;;;11.65;7.00;;;1.40;49.10;;;;;;5033064;28;20613;-65
2023/10/17 01:36:16;;;;;;;9.82;6.93;;;1.40;48.90;;;;;;5033109;28;20220;-66
2023/10/17 01:38:42;;;;;;;9.10;6.70;;;1.50;51.20;;;;;;5032777;28;20260;-66
2023/10/17 01:41:10;;;;;;;12.40;7.80;;;1.50;52.00;;;;;;5031560;28;20179;-66
2023/10/17 01:43:41;;;;;;;11.13;6.78;;;1.40;51.60;;;;;;5032846;28;20438;-66
2023/10/17 01:46:10;;;;;;;8.63;6.72;;;1.50;53.80;;;;;;5032741;28;20239;-66
2023/10/17 01:48:36;;;;;;;10.77;7.40;;;1.50;53.60;;;;;;5032969;28;20179;-66
2023/10/17 01:51:05;;;;;;;11.47;7.87;;;1.40;52.20;;;;;;5032720;28;20179;-66
2023/10/17 01:53:32;;;;;;;10.63;6.03;;;1.40;51.70;;;;;;5032618;28;20199;-66
2023/10/17 01:56:14;;;;;;;13.13;7.47;;;1.40;52.90;;;;;;5032645;28;20175;-66
2023/10/17 01:58:48;;;;;;;9.13;6.45;;;1.40;51.80;;;;;;5031995;28;20573;-66
2023/10/17 02:01:29;;;;;;;11.55;6.55;;;1.50;53.30;;;;;;5032978;28;20654;-66
2023/10/17 02:04:03;;;;;;;10.82;6.43;;;1.50;50.90;;;;;;5032732;28;20231;-66
2023/10/17 02:06:35;;;;;;;10.45;7.72;;;1.50;53.20;;;;;;5032441;28;20166;-66
2023/10/17 02:09:05;;;;;;;9.68;6.57;;;1.60;52.20;;;;;;5032335;28;20178;-66
2023/10/17 02:11:40;;;;;;;9.43;7.18;;;1.60;53.20;;;;;;5032842;28;20179;-65
2023/10/17 02:14:06;;;;;;;11.68;7.30;;;1.60;52.70;;;;;;5032428;28;20260;-65
2023/10/17 02:16:32;;;;;;;10.68;7.68;;;1.60;53.00;;;;;;5032189;28;20305;-65
2023/10/17 02:19:07;;;;;;;11.38;9.05;;;1.60;52.20;;;;;;5032221;28;20194;-65
2023/10/17 02:21:33;;;;;;;13.40;7.10;;;1.60;51.70;;;;;;5032424;28;20181;-66
2023/10/17 02:24:01;;;;;;;13.27;8.10;;;1.60;52.60;;;;;;5032208;28;20247;-66
2023/10/17 02:26:29;;;;;;;8.90;5.60;;;1.60;52.50;;;;;;5031950;28;20183;-66
2023/10/17 02:29:05;;;;;;;11.90;7.00;;;1.60;51.60;;;;;;5030870;28;20229;-66
2023/10/17 02:31:32;;;;;;;8.50;6.95;;;1.60;52.50;;;;;;5031959;28;20175;-65
2023/10/17 02:33:58;;;;;;;9.95;7.50;;;1.70;52.60;;;;;;5031835;28;20206;-66
2023/10/17 02:36:24;;;;;;;8.17;6.50;;;1.70;53.50;;;;;;5031913;28;20283;-65
2023/10/17 02:38:50;;;;;;;10.55;7.88;;;1.70;53.70;;;;;;5032754;28;20207;-65
2023/10/17 02:41:19;;;;;;;10.30;7.82;;;1.80;52.20;;;;;;5033308;28;20186;-66
2023/10/17 02:43:46;;;;;;;8.52;7.30;;;1.80;52.20;;;;;;5034203;28;20187;-66
2023/10/17 02:46:14;;;;;;;7.60;6.10;;;1.80;51.50;;;;;;5034280;28;20171;-66
2023/10/17 02:48:40;;;;;;;12.00;8.13;;;1.80;51.90;;;;;;5033080;28;20228;-66
2023/10/17 02:53:55;;;;;;;7.88;6.07;;;1.80;52.20;;;;;;5031908;28;20270;-66
2023/10/17 02:56:22;;;;;;;9.27;6.50;;;1.80;52.40;;;;;;5031764;28;20224;-66
2023/10/17 03:01:36;;;;;;;7.72;6.30;;;1.80;52.00;;;;;;5032116;28;20182;-66
2023/10/17 03:04:09;;;;;;;10.25;8.02;;;1.80;52.20;;;;;;5030414;28;20214;-66
2023/10/17 03:06:40;;;;;;;12.45;8.75;;;1.70;51.40;;;;;;5030279;28;20179;-65
2023/10/17 03:12:07;;;;;;;8.35;6.03;;;1.70;52.30;;;;;;5035107;28;20262;-66
2023/10/17 03:14:40;;;;;;;7.97;6.97;;;1.70;52.90;;;;;;5035589;28;20202;-66
2023/10/17 03:17:06;;;;;;;10.88;7.68;;;1.80;52.30;;;;;;5035412;28;20237;-65
2023/10/17 03:19:33;;;;;;;11.18;8.25;;;1.80;48.70;;;;;;5035444;28;20171;-66
2023/10/17 03:22:16;;;;;;;8.10;6.18;;;1.80;45.50;;;;;;5035696;28;20202;-66
2023/10/17 03:24:44;;;;;;;9.13;6.72;;;1.80;42.40;;;;;;5035491;28;20689;-66
2023/10/17 03:27:11;;;;;;;12.13;7.03;;;1.80;42.30;;;;;;5035322;28;20194;-65
2023/10/17 03:29:42;;;;;;;8.77;7.03;;;1.80;40.80;;;;;;5035401;28;20198;-66
2023/10/17 03:32:11;;;;;;;10.68;7.40;;;1.80;40.40;;;;;;5034036;28;20186;-66
2023/10/17 03:34:37;;;;;;;7.68;6.63;;;1.80;40.50;;;;;;5035281;28;20780;-66
2023/10/17 03:39:55;;;;;;;13.27;7.05;;;1.70;37.90;;;;;;5035387;28;20186;-66
2023/10/17 03:47:56;;;;;;;8.85;6.60;;;1.70;35.40;;;;;;5035165;28;20167;-65
2023/10/17 03:50:33;;;;;;;8.27;6.53;;;1.70;36.10;;;;;;5035719;28;20642;-66
2023/10/17 03:53:15;;;;;;;9.23;6.75;;;1.70;36.60;;;;;;5034902;28;20187;-66
2023/10/17 03:55:43;;;;;;;9.20;7.30;;;1.70;35.40;;;;;;5034919;28;20190;-66
2023/10/17 03:58:18;;;;;;;10.50;8.93;;;1.60;35.80;;;;;;5034933;28;20293;-66
2023/10/17 04:00:45;;;;;;;8.20;6.35;;;1.60;36.80;;;;;;5035057;28;20183;-66
2023/10/17 04:03:19;;;;;;;9.15;7.22;;;1.70;36.50;;;;;;5034794;28;20210;-66
2023/10/17 04:05:49;;;;;;;11.27;7.72;;;1.70;36.80;;;;;;5034850;28;20175;-66
2023/10/17 04:08:19;;;;;;;10.43;7.55;;;1.70;35.40;;;;;;5034800;28;20202;-66
2023/10/17 04:11:08;;;;;;;9.70;7.13;;;1.70;36.00;;;;;;5034897;28;20186;-66
2023/10/17 04:13:34;;;;;;;10.63;7.97;;;1.70;36.90;;;;;;5034809;28;20195;-65
2023/10/17 04:16:08;;;;;;;8.30;6.97;;;1.60;36.60;;;;;;5035084;28;20190;-65
2023/10/17 04:18:37;;;;;;;10.90;7.30;;;1.60;37.90;;;;;;5034353;28;20473;-65
2023/10/17 04:21:17;;;;;;;16.27;7.85;;;1.70;38.80;;;;;;5034568;28;20233;-65
2023/10/17 04:23:44;;;;;;;10.95;7.72;;;1.80;51.10;;;;;;5034089;28;20198;-66
2023/10/17 04:26:17;;;;;;;12.05;7.90;;;1.80;46.50;;;;;;5034951;28;20183;-66
2023/10/17 04:28:49;;;;;;;10.63;7.53;;;1.80;46.20;;;;;;5034232;28;20642;-66
2023/10/17 04:31:22;;;;;;;10.30;7.13;;;1.70;48.00;;;;;;5034532;28;20206;-66
2023/10/17 04:33:48;;;;;;;12.75;7.80;;;1.80;46.40;;;;;;5034405;28;20685;-66
2023/10/17 04:36:15;;;;;;;9.27;6.93;;;1.80;47.00;;;;;;5034306;28;20197;-66
2023/10/17 04:38:46;;;;;;;12.43;7.13;;;1.80;47.10;;;;;;5033922;28;20292;-66
2023/10/17 04:41:17;;;;;;;12.50;6.95;;;1.80;46.20;;;;;;5034315;28;20259;-65
2023/10/17 04:43:45;;;;;;;9.77;7.90;;;1.80;48.30;;;;;;5034276;28;20210;-66
2023/10/17 04:46:11;;;;;;;10.45;7.50;;;2.00;49.00;;;;;;5032952;28;20175;-66
2023/10/17 04:48:40;;;;;;;9.73;7.33;;;1.90;47.40;;;;;;5033966;28;20175;-65
2023/10/17 04:53:47;;;;;;;11.20;8.80;;;2.00;58.20;;;;;;5034100;28;20695;-68
2023/10/17 04:56:16;;;;;;;10.32;7.40;;;2.10;57.00;;;;;;5033888;28;20210;-66
2023/10/17 04:58:48;;;;;;;8.73;7.00;;;2.10;55.50;;;;;;5033782;28;20249;-66
2023/10/17 05:03:59;;;;;;;11.80;7.15;;;2.10;55.50;;;;;;5033916;28;20215;-66
2023/10/17 05:06:52;;;;;;;12.40;7.93;;;2.20;47.70;;;;;;5033813;28;20174;-66
2023/10/17 06:16:49;;;;;;;10.48;7.13;;;2.20;46.90;;;;;;5033630;28;20190;-66
2023/10/17 06:17:48;;;;;;;19.17;10.98;;;3.10;45.20;;;;;;5032458;28;20291;-66
2023/10/17 06:20:16;;;;;;;11.07;7.78;;;3.10;44.60;;;;;;5032409;28;20179;-66
2023/10/17 06:33:36;;;;;;;41.63;16.50;;;3.30;44.10;;;;;;5033166;28;20298;-66
2023/10/17 06:36:13;;;;;;;54.80;20.98;;;3.40;43.10;;;;;;5032991;28;20418;-66
2023/10/17 06:38:47;;;;;;;31.95;13.93;;;3.50;39.50;;;;;;5032243;28;20194;-66
2023/10/17 06:41:27;;;;;;;12.75;9.02;;;3.50;36.90;;;;;;5032057;28;20225;-66
2023/10/17 06:43:58;;;;;;;38.42;16.00;;;3.50;39.00;;;;;;5032873;28;20187;-66
2023/10/17 06:46:30;;;;;;;27.00;14.05;;;3.60;39.80;;;;;;5033055;28;20171;-67
2023/10/17 06:49:03;;;;;;;27.73;13.38;;;3.70;37.50;;;;;;5032187;28;20191;-66
2023/10/17 06:51:29;;;;;;;105.22;36.78;;;3.80;37.10;;;;;;5032062;28;20203;-66
2023/10/17 06:53:57;;;;;;;23.47;14.10;;;3.80;37.70;;;;;;5032505;28;20642;-66
2023/10/17 06:56:25;;;;;;;22.65;14.52;;;4.00;39.00;;;;;;5033364;28;20451;-67
2023/10/17 06:59:03;;;;;;;24.27;13.82;;;4.10;32.50;;;;;;5033529;28;20211;-67
2023/10/17 07:01:28;;;;;;;19.40;10.60;;;4.40;29.50;;;;;;5033550;28;20183;-67
2023/10/17 07:03:55;;;;;;;14.20;11.27;;;4.60;29.30;;;;;;5032811;28;20212;-66
2023/10/17 07:06:24;;;;;;;18.13;10.25;;;4.80;25.80;;;;;;5033079;28;20192;-66
2023/10/17 07:08:51;;;;;;;12.85;8.48;;;5.00;23.40;;;;;;5031943;28;20226;-66
2023/10/17 07:14:22;;;;;;;11.15;7.75;;;4.90;19.20;;;;;;5032010;28;20283;-66
2023/10/17 07:16:42;;;;;;;11.68;8.27;;;5.00;19.90;;;;;;5031534;28;20219;-66
2023/10/17 07:22:12;;;;;;;69.15;29.63;;;5.00;20.10;;;;;;5032053;28;20424;-66
2023/10/17 07:24:37;;;;;;;61.40;28.95;;;5.00;18.80;;;;;;5031189;28;20249;-66
2023/10/17 07:27:18;;;;;;;27.93;11.90;;;5.20;20.30;;;;;;5031581;28;20174;-67
2023/10/17 07:29:45;;;;;;;48.78;23.02;;;5.20;17.50;;;;;;5030353;28;20417;-66
2023/10/17 07:32:17;;;;;;;18.75;12.38;;;5.30;17.40;;;;;;5031576;28;20259;-66
2023/10/17 07:34:45;;;;;;;11.68;7.38;;;5.40;17.00;;;;;;5031384;28;20190;-66
2023/10/17 07:37:14;;;;;;;9.80;7.60;;;5.50;15.50;;;;;;5031421;28;20280;-66
2023/10/17 07:39:40;;;;;;;11.85;8.00;;;5.50;14.20;;;;;;5031364;28;20542;-67
2023/10/17 07:42:15;;;;;;;11.20;8.10;;;5.80;17.90;;;;;;5031242;28;20269;-66
2023/10/17 07:44:49;;;;;;;9.60;6.60;;;6.00;16.00;;;;;;5031264;28;20433;-66
2023/10/17 07:47:21;;;;;;;12.10;7.60;;;5.70;15.10;;;;;;5030006;28;20409;-66
2023/10/17 07:49:50;;;;;;;9.57;6.97;;;5.70;16.40;;;;;;5031924;28;20177;-67
2023/10/17 07:52:16;;;;;;;10.10;7.20;;;5.80;16.40;;;;;;5032745;28;20173;-67
2023/10/17 07:54:45;;;;;;;10.23;8.10;;;6.10;16.60;;;;;;5032194;28;20436;-67
2023/10/17 07:57:17;;;;;;;11.93;8.33;;;6.40;17.40;;;;;;5031972;28;20437;-67
2023/10/17 07:59:52;;;;;;;10.37;7.50;;;6.40;17.10;;;;;;5034831;28;20527;-67
2023/10/17 08:02:23;;;;;;;16.87;7.47;;;6.50;15.50;;;;;;5035171;28;20427;-67
2023/10/17 08:04:52;;;;;;;8.90;7.73;;;6.60;16.00;;;;;;5071890;22;20498;-71
2023/10/17 08:07:21;;;;;;;11.73;8.53;;;6.90;15.00;;;;;;5034359;28;20418;-71
2023/10/17 08:09:59;;;;;;;9.13;6.50;;;7.10;14.20;;;;;;5034621;28;20402;-72
2023/10/17 08:12:29;;;;;;;9.47;7.60;;;7.30;13.10;;;;;;5034907;28;20409;-72
2023/10/17 08:14:58;;;;;;;13.60;6.73;;;7.60;13.30;;;;;;5034449;28;20426;-72
2023/10/17 08:17:27;;;;;;;11.20;8.00;;;8.00;11.70;;;;;;5032950;28;20407;-73
2023/10/17 08:25:25;;;;;;;18.73;11.07;;;8.30;8.90;;;;;;5034588;28;20518;-70
2023/10/17 08:27:54;;;;;;;12.27;8.60;;;8.20;8.40;;;;;;5032737;28;20478;-71
2023/10/17 08:30:34;;;;;;;16.13;9.87;;;8.30;8.80;;;;;;5034332;28;20416;-71
2023/10/17 08:35:38;;;;;;;9.60;8.00;;;8.80;7.20;;;;;;5034230;28;20415;-73
2023/10/17 08:38:10;;;;;;;14.67;10.00;;;9.00;7.60;;;;;;5032515;28;20464;-71
2023/10/17 08:43:06;;;;;;;11.30;8.37;;;9.10;5.50;;;;;;5033836;28;20412;-71
2023/10/17 08:45:37;;;;;;;14.60;10.70;;;9.60;5.70;;;;;;5032740;28;20176;-71
2023/10/17 08:48:05;;;;;;;15.00;10.30;;;9.70;4.90;;;;;;5033856;28;20416;-71
2023/10/17 08:50:38;;;;;;;14.00;11.07;;;10.00;2.90;;;;;;5032497;28;20430;-71
2023/10/17 08:55:43;;;;;;;13.37;9.90;;;10.30;2.80;;;;;;5034036;28;20412;-73
2023/10/17 08:58:09;;;;;;;19.77;10.07;;;10.30;1.60;;;;;;5032601;28;21010;-71
2023/10/17 09:03:29;;;;;;;11.17;9.13;;;10.20;2.90;;;;;;5033809;28;20455;-70
2023/10/17 09:06:05;;;;;;;14.93;10.20;;;10.30;1.80;;;;;;5033529;28;20416;-72
2023/10/17 09:11:25;;;;;;;12.47;10.20;;;10.10;2.60;;;;;;5033709;28;20839;-72
2023/10/17 09:16:16;;;;;;;15.23;11.10;;;10.10;2.60;;;;;;5033637;28;20433;-73
2023/10/17 09:18:48;;;;;;;13.50;9.60;;;10.00;3.10;;;;;;5031884;28;20712;-73
2023/10/17 09:21:14;;;;;;;14.60;10.27;;;10.10;2.50;;;;;;5032540;28;20243;-71
2023/10/17 09:23:41;;;;;;;13.70;9.83;;;9.90;3.50;;;;;;5033444;28;20432;-70
2023/10/17 09:26:10;;;;;;;13.20;10.37;;;10.00;3.10;;;;;;5032120;28;20425;-72
2023/10/17 09:28:36;;;;;;;11.57;9.80;;;9.90;4.30;;;;;;5031831;28;20582;-72
2023/10/17 09:31:03;;;;;;;10.60;9.40;;;9.80;4.20;;;;;;5033310;28;20474;-71
2023/10/17 09:33:32;;;;;;;14.03;9.93;;;9.90;4.40;;;;;;5033086;28;20533;-72
2023/10/17 09:35:59;;;;;;;14.03;10.57;;;10.20;3.30;;;;;;5033189;28;20409;-72
2023/10/17 09:38:28;;;;;;;11.53;10.03;;;10.10;3.50;;;;;;5032911;28;20475;-71
2023/10/17 09:41:00;;;;;;;14.07;9.67;;;10.20;3.40;;;;;;5031666;28;20836;-72
2023/10/17 09:43:27;;;;;;;13.33;8.30;;;10.20;3.10;;;;;;5032971;28;20427;-71
2023/10/17 09:45:55;;;;;;;11.77;9.33;;;10.30;2.90;;;;;;5031548;28;20423;-73
2023/10/17 09:48:29;;;;;;;13.07;8.93;;;10.40;3.00;;;;;;5032594;28;20421;-71
2023/10/17 09:50:56;;;;;;;9.57;7.00;;;10.40;2.90;;;;;;5032753;28;20467;-71
2023/10/17 09:53:28;;;;;;;13.83;10.20;;;10.50;2.30;;;;;;5032669;28;20440;-71
2023/10/17 09:55:56;;;;;;;15.43;9.50;;;10.60;2.90;;;;;;5031769;28;20995;-72
2023/10/17 09:58:28;;;;;;;12.33;8.50;;;10.90;2.40;;;;;;5032671;28;20458;-72
2023/10/17 10:01:05;;;;;;;15.63;10.00;;;11.30;1.50;;;;;;5032910;28;20413;-71
2023/10/17 10:03:30;;;;;;;9.83;8.60;;;11.40;1.00;;;;;;5031113;28;20444;-71
2023/10/17 10:06:27;;;;;;;10.97;9.57;;;11.70;1.00;;;;;;5031180;28;20434;-71
2023/10/17 10:08:56;;;;;;;11.50;9.10;;;11.50;1.00;;;;;;5032637;28;20456;-73
2023/10/17 10:11:47;;;;;;;13.70;9.80;;;11.60;1.00;;;;;;5032287;28;20450;-70
2023/10/17 10:14:13;;;;;;;13.67;9.20;;;11.40;1.00;;;;;;5030766;28;20452;-71
2023/10/17 10:16:51;;;;;;;13.40;9.10;;;11.50;1.00;;;;;;5032365;28;20413;-71
2023/10/17 10:19:17;;;;;;;10.43;8.87;;;11.70;1.00;;;;;;5032100;28;20469;-71
2023/10/17 10:22:05;;;;;;;10.67;8.30;;;11.70;1.00;;;;;;5031605;28;20421;-72
2023/10/17 10:24:32;;;;;;;15.70;8.77;;;11.60;1.00;;;;;;5029983;28;20207;-72
2023/10/17 10:27:10;;;;;;;13.10;9.33;;;12.00;1.00;;;;;;5025077;28;20956;-72
2023/10/17 10:29:36;;;;;;;12.87;8.33;;;12.20;1.00;;;;;;5030522;28;20484;-71
2023/10/17 10:32:05;;;;;;;12.90;10.00;;;12.30;1.00;;;;;;5030833;28;20442;-72
2023/10/17 10:34:35;;;;;;;12.73;8.50;;;12.60;1.00;;;;;;5032019;28;20436;-73
2023/10/17 10:37:03;;;;;;;12.23;9.77;;;12.90;1.00;;;;;;5031418;28;20922;-72
2023/10/17 10:39:30;;;;;;;12.23;8.70;;;13.00;1.00;;;;;;5031623;28;20832;-72
2023/10/17 10:42:07;;;;;;;12.40;9.53;;;13.20;1.00;;;;;;5030467;28;20432;-72
2023/10/17 10:44:40;;;;;;;11.83;9.77;;;13.50;1.00;;;;;;5031550;28;20492;-71
2023/10/17 10:47:06;;;;;;;14.10;9.97;;;13.40;1.00;;;;;;5031418;28;20426;-71
2023/10/17 10:49:31;;;;;;;14.63;10.80;;;13.30;1.00;;;;;;5031557;28;20456;-72
2023/10/17 10:51:58;;;;;;;11.40;8.03;;;13.40;1.00;;;;;;5029987;28;20321;-72
2023/10/17 10:54:27;;;;;;;10.03;8.23;;;13.50;1.00;;;;;;5030322;28;20218;-71
2023/10/17 10:56:53;;;;;;;10.10;8.57;;;13.00;1.00;;;;;;5030230;28;20431;-72
2023/10/17 10:59:22;;;;;;;11.40;9.17;;;13.10;1.00;;;;;;5031636;28;20468;-72
2023/10/17 11:01:48;;;;;;;15.10;9.33;;;13.40;1.00;;;;;;5031850;28;20171;-72
2023/10/17 11:04:14;;;;;;;13.03;9.37;;;13.30;1.00;;;;;;5031419;28;20457;-72
2023/10/17 11:06:41;;;;;;;12.30;9.60;;;13.20;1.00;;;;;;5030590;28;20439;-72
2023/10/17 11:09:09;;;;;;;13.43;10.53;;;13.00;1.00;;;;;;5031553;28;20272;-73
2023/10/17 11:11:50;;;;;;;14.53;9.63;;;13.30;1.00;;;;;;5030258;28;20425;-72
2023/10/17 11:14:16;;;;;;;11.90;10.23;;;13.50;1.00;;;;;;5030153;28;20472;-73
2023/10/17 11:16:42;;;;;;;8.87;7.60;;;13.80;1.00;;;;;;5031373;28;20473;-72
2023/10/17 11:19:21;;;;;;;10.40;8.77;;;13.90;1.00;;;;;;5030058;28;20468;-72
2023/10/17 11:21:55;;;;;;;12.20;9.03;;;13.80;1.00;;;;;;5031531;28;20415;-72
2023/10/17 11:24:23;;;;;;;11.30;9.40;;;13.50;1.00;;;;;;5031384;28;20464;-73
2023/10/17 11:26:51;;;;;;;8.90;7.97;;;13.40;1.00;;;;;;5029948;28;20442;-72
2023/10/17 11:29:26;;;;;;;11.07;8.97;;;13.50;1.00;;;;;;5030046;28;20428;-73
2023/10/17 11:31:53;;;;;;;8.70;7.40;;;13.20;1.00;;;;;;5030177;28;21145;-72
2023/10/17 11:34:29;;;;;;;11.53;7.80;;;13.30;1.00;;;;;;5035145;28;20483;-72
2023/10/17 11:37:02;;;;;;;12.73;9.07;;;13.30;1.00;;;;;;5035051;28;20409;-72
2023/10/17 11:39:38;;;;;;;10.77;7.73;;;13.40;1.00;;;;;;5033629;28;20467;-70
2023/10/17 11:42:04;;;;;;;11.53;10.33;;;12.90;1.00;;;;;;5033752;28;20423;-71
2023/10/17 11:44:31;;;;;;;11.77;7.37;;;12.70;1.00;;;;;;5034966;28;20431;-72
2023/10/17 11:47:03;;;;;;;10.20;8.57;;;12.60;1.00;;;;;;5034564;28;20207;-72
2023/10/17 11:49:35;;;;;;;9.80;7.93;;;12.80;1.00;;;;;;5035135;28;20415;-72
2023/10/17 11:52:02;;;;;;;9.80;8.60;;;13.10;1.00;;;;;;5034857;28;20431;-72
2023/10/17 11:54:29;;;;;;;10.43;9.13;;;13.40;1.00;;;;;;5034556;28;20998;-72
2023/10/17 11:56:55;;;;;;;8.57;7.67;;;13.40;1.00;;;;;;5034905;28;20442;-72
2023/10/17 11:59:21;;;;;;;12.10;8.83;;;13.10;1.00;;;;;;5034725;28;20502;-72
2023/10/17 12:01:58;;;;;;;8.83;7.37;;;12.80;1.00;;;;;;5034858;28;20578;-72
2023/10/17 12:04:25;;;;;;;10.90;7.80;;;12.80;1.00;;;;;;5034402;28;20465;-72
2023/10/17 12:06:51;;;;;;;9.47;7.73;;;12.90;1.00;;;;;;5034548;28;20405;-73
2023/10/17 12:09:22;;;;;;;14.13;9.30;;;13.00;1.00;;;;;;5034805;28;20928;-72
2023/10/17 12:11:52;;;;;;;10.73;8.83;;;13.00;1.00;;;;;;5034624;28;20179;-72
2023/10/17 12:14:21;;;;;;;11.00;8.93;;;13.00;1.00;;;;;;5034218;28;20815;-73
2023/10/17 12:16:54;;;;;;;12.73;9.27;;;13.20;1.00;;;;;;5034352;28;20807;-73
2023/10/17 12:19:20;;;;;;;11.03;10.03;;;13.10;1.00;;;;;;5033082;28;20464;-73
2023/10/17 12:21:48;;;;;;;10.27;9.17;;;13.00;1.00;;;;;;5034308;28;20426;-73
2023/10/17 12:24:19;;;;;;;12.30;8.00;;;13.00;1.00;;;;;;5033631;28;20979;-73
2023/10/17 12:26:49;;;;;;;13.30;8.80;;;13.10;1.00;;;;;;5033812;28;20959;-72
2023/10/17 12:29:15;;;;;;;11.67;10.03;;;13.20;1.00;;;;;;5032577;28;20430;-72
2023/10/17 12:31:41;;;;;;;12.80;8.37;;;13.50;1.00;;;;;;5033993;28;20453;-73
2023/10/17 12:34:10;;;;;;;33.60;12.37;;;13.80;1.00;;;;;;5033938;28;20455;-73
2023/10/17 12:36:36;;;;;;;13.07;9.97;;;13.70;1.00;;;;;;5020853;28;20183;-72
2023/10/17 12:39:08;;;;;;;11.30;9.60;;;13.50;1.00;;;;;;5034017;28;20465;-73
2023/10/17 12:41:35;;;;;;;13.60;10.37;;;13.40;1.00;;;;;;5026527;28;20929;-71
2023/10/17 12:44:01;;;;;;;10.80;8.60;;;13.50;1.00;;;;;;5033117;28;20846;-71
2023/10/17 12:46:26;;;;;;;13.80;9.67;;;13.40;1.00;;;;;;5033220;28;20426;-71
2023/10/17 12:48:52;;;;;;;11.37;10.17;;;13.30;1.00;;;;;;5032445;28;20430;-71
2023/10/17 12:51:20;;;;;;;12.50;9.10;;;13.40;1.00;;;;;;5032563;28;20182;-71
2023/10/17 12:53:46;;;;;;;14.50;10.43;;;13.50;1.00;;;;;;5032414;28;20963;-71
2023/10/17 12:56:12;;;;;;;17.53;10.30;;;13.60;1.00;;;;;;5033818;28;20919;-72
2023/10/17 12:58:37;;;;;;;11.77;9.13;;;13.60;1.00;;;;;;5033381;28;20453;-73
2023/10/17 13:01:04;;;;;;;13.97;11.07;;;13.40;1.00;;;;;;5033523;28;20170;-72
2023/10/17 13:03:33;;;;;;;16.33;10.77;;;13.60;1.00;;;;;;5033170;28;20218;-72
2023/10/17 13:06:00;;;;;;;10.73;8.17;;;13.70;1.00;;;;;;5033637;28;20711;-73
2023/10/17 13:08:26;;;;;;;21.47;11.27;;;14.00;1.00;;;;;;5033080;28;20428;-72
2023/10/17 13:10:54;;;;;;;17.47;12.90;;;14.10;1.00;;;;;;5033723;28;20562;-72
2023/10/17 13:13:19;;;;;;;19.47;11.27;;;14.10;1.00;;;;;;5033300;28;20420;-72
2023/10/17 13:15:45;;;;;;;12.20;10.10;;;14.00;1.00;;;;;;5033407;28;20417;-73
2023/10/17 13:18:12;;;;;;;13.00;9.90;;;14.10;1.00;;;;;;5033116;28;20214;-73
2023/10/17 13:20:38;;;;;;;11.97;9.77;;;14.20;1.00;;;;;;5033272;28;20199;-72
2023/10/17 13:23:04;;;;;;;11.93;10.17;;;14.30;1.00;;;;;;5032854;28;20519;-72
2023/10/17 13:25:38;;;;;;;12.53;10.00;;;14.40;1.00;;;;;;5033253;28;20176;-72
2023/10/17 13:28:04;;;;;;;11.83;10.47;;;14.50;1.00;;;;;;5032856;28;20423;-72
2023/10/17 13:30:31;;;;;;;10.00;8.83;;;14.60;1.00;;;;;;5033145;28;20755;-73
2023/10/17 13:32:57;;;;;;;15.63;9.80;;;14.70;1.00;;;;;;5031461;28;20421;-73
2023/10/17 13:35:23;;;;;;;16.40;9.80;;;14.80;1.00;;;;;;5031602;28;20441;-73
2023/10/17 13:37:52;;;;;;;14.33;10.20;;;14.80;1.00;;;;;;5031385;28;20509;-73
2023/10/17 13:40:19;;;;;;;15.63;9.70;;;14.80;1.00;;;;;;5032962;28;20257;-73
2023/10/17 13:42:46;;;;;;;11.73;9.60;;;14.70;1.00;;;;;;5032526;28;20422;-73
2023/10/17 13:45:13;;;;;;;9.03;7.83;;;14.80;1.00;;;;;;5032693;28;20432;-73
2023/10/17 13:47:40;;;;;;;11.33;9.47;;;14.70;1.00;;;;;;5032505;28;20848;-73
2023/10/17 13:50:13;;;;;;;11.47;9.90;;;14.50;1.00;;;;;;5031476;28;20469;-72
2023/10/17 13:52:48;;;;;;;10.93;9.30;;;14.40;1.00;;;;;;5030886;28;20432;-74
2023/10/17 13:55:17;;;;;;;11.90;9.20;;;14.30;1.00;;;;;;5030344;28;20441;-72
2023/10/17 13:57:42;;;;;;;11.20;9.37;;;14.30;1.00;;;;;;5031000;28;20501;-73
2023/10/17 14:00:09;;;;;;;13.47;10.00;;;14.40;1.00;;;;;;5032278;28;20512;-73
2023/10/17 14:02:35;;;;;;;12.93;9.10;;;14.30;1.00;;;;;;5032411;28;20194;-73
2023/10/17 14:05:01;;;;;;;12.67;10.20;;;14.20;1.00;;;;;;5031078;28;21011;-73
2023/10/17 14:07:27;;;;;;;15.17;10.20;;;14.10;1.00;;;;;;5032214;28;20645;-72
2023/10/17 14:09:55;;;;;;;12.97;9.50;;;14.30;1.00;;;;;;5032347;28;20458;-73
2023/10/17 14:12:21;;;;;;;13.13;9.00;;;14.50;1.00;;;;;;5032368;28;20691;-72
2023/10/17 14:14:47;;;;;;;12.40;8.83;;;14.50;1.00;;;;;;5032258;28;20436;-72
2023/10/17 14:17:12;;;;;;;11.97;10.33;;;14.50;1.00;;;;;;5032164;28;20524;-71
2023/10/17 14:19:45;;;;;;;11.83;8.93;;;14.40;1.00;;;;;;5032378;28;20648;-69
2023/10/17 14:27:20;;;;;;;13.60;9.47;;;14.70;1.00;;;;;;5032082;28;20758;-70
2023/10/17 14:29:49;;;;;;;13.03;9.80;;;14.70;1.00;;;;;;5031764;28;20846;-71
2023/10/17 14:32:16;;;;;;;11.97;9.07;;;14.40;1.00;;;;;;5032282;28;20532;-70
2023/10/17 14:34:41;;;;;;;10.73;8.77;;;14.10;1.00;;;;;;5031858;28;20448;-71
2023/10/17 14:37:07;;;;;;;11.50;8.40;;;14.00;1.00;;;;;;5032116;28;20422;-71
2023/10/17 14:39:33;;;;;;;11.10;8.90;;;13.90;1.00;;;;;;5031783;28;20690;-71
2023/10/17 14:41:59;;;;;;;9.73;8.00;;;13.90;1.00;;;;;;5031933;28;20797;-71
2023/10/17 14:44:29;;;;;;;10.87;8.70;;;13.60;1.00;;;;;;5031573;28;20455;-71
2023/10/17 14:46:55;;;;;;;12.60;8.60;;;13.50;1.80;;;;;;5031769;28;20225;-71
2023/10/17 14:49:21;;;;;;;9.63;8.27;;;13.40;1.50;;;;;;5031428;28;20428;-70
2023/10/17 14:51:47;;;;;;;9.47;8.47;;;13.50;1.70;;;;;;5031889;28;20442;-71
2023/10/17 14:54:13;;;;;;;10.70;7.80;;;13.50;1.60;;;;;;5031363;28;20457;-71
2023/10/17 14:56:39;;;;;;;11.27;8.90;;;13.30;2.00;;;;;;5031701;28;20181;-71
2023/10/17 14:59:05;;;;;;;8.77;7.70;;;13.10;2.80;;;;;;5031687;28;20472;-71
2023/10/17 15:01:31;;;;;;;10.00;7.70;;;13.10;3.00;;;;;;5031783;28;20926;-70
2023/10/17 15:03:59;;;;;;;9.13;7.70;;;13.00;3.20;;;;;;5030200;28;20470;-70
2023/10/17 15:06:25;;;;;;;11.47;9.20;;;12.90;3.70;;;;;;5032591;28;20189;-71
2023/10/17 15:08:50;;;;;;;11.20;7.70;;;12.80;4.00;;;;;;5035985;28;20418;-70
2023/10/17 15:11:16;;;;;;;14.70;8.80;;;12.80;4.20;;;;;;5034341;28;20531;-71
2023/10/17 15:13:42;;;;;;;10.90;7.87;;;12.80;4.50;;;;;;5035613;28;20205;-71